METAR Data
IDs: Format: Raw Decoded Include TAF

Data at: 0853 UTC 27 Feb 2020

METAR for:TJSJ (San Juan/Marin Intl, PR, US)
Text:TJSJ 270756Z 00000KT 10SM FEW035 SCT085 22/19 A3001 RMK AO2 SLP160 T02220194
Temperature: 22.2°C ( 72°F)
Dewpoint: 19.4°C ( 67°F) [RH = 84%]
Pressure (altimeter):30.01 inches Hg (1016.3 mb) [Sea level pressure: 1016.0 mb]
Winds:calm
Visibility:10 or more sm (16+ km)
Ceiling:at least 12,000 feet AGL
Clouds: few clouds at 3500 feet AGL, scattered clouds at 8500 feet AGL